Airfield :
LOGIN :

Register | Disclaimer

   EN    FR    IT 

 










Legend :    VFR   Marginal VFR   IFR   Intensive IFR   Very Intensive IFR
Visi :
Ceiling :
>= 8 km
>= 3000ft
5 to 8 km
1000 to 3000 ft
1500m to 5 km
500 to 1000 ft
800 to 1500m
200 to 500 ft
< 800m
< 200 ft
Symbols :   Thunderstorms  Fog  Heavy snow  Heavy precipitations  Wind > 20 kt
SIGMETs :     Misc.  Thunderstorms  Icing  Turbulence  Mountain Waves  Volcanic Ashes







- Airport Elevation : 202 ft
- IATA code : LGW
- Download approach charts


EGKK - London Gatwick

CURRENT METAR :
  • 181350Z 06012KT 020V100 9999 FEW043 21/10 Q1022

EXPIRED METARs :
  • 181320Z 08010KT 9999 FEW043 21/11 Q1022
  • 181250Z 05014KT CAVOK 20/10 Q1022
  • 181220Z 05013KT CAVOK 20/11 Q1022
  • 181150Z 06012KT CAVOK 20/11 Q1022
  • 181120Z 07011KT 040V110 CAVOK 19/10 Q1022

TAF TAF EGKK
Valid from the 18 at 12:00 until the 19 at 18:00 UTC


181105Z 1812/1918 08009KT CAVOK
PROB30 1812/1813 9000
PROB40 1821/1908 5000 HZ
No reported NOTAMs for that airfield.



MET'MAP, your aeronautical weather chart ! - Copyright ORBIFLY December 2007 - Disclaimer

ORBIFLY MET'MAP TEAM :

Programming & Development : Alexandra Zaïnal
Concept & Development : Baudouin d'Aumeries
Co-Development & Prog : Marc-Olivier Méhu
Technical & hardware support : Manuel Goepfert

Contact : metmap@orbifly.com




SOURCES & CREDITS :

   NOAA